Time;durP1;ratioP1;P1;durP2;ratioP2;P2;SDS_P1;SDS_P2;PMS_P1;PMS_P2;Temp;Humidity;BMP_temperature;BMP_pressure;BME280_temperature;BME280_humidity;BME280_pressure;Samples;Min_cycle;Max_cycle;Signal;HPM_P1;HPM_P2
2022/10/14 00:01:09;;;;;;;22.58;11.63;;;11.10;73.50;;;;;;5017013;28;20032;-65
2022/10/14 00:03:36;;;;;;;14.38;9.82;;;11.00;73.70;;;;;;5020165;28;20448;-65
2022/10/14 00:06:07;;;;;;;19.25;11.75;;;11.00;73.70;;;;;;5034005;28;20084;-65
2022/10/14 00:08:33;;;;;;;20.85;10.90;;;10.90;72.60;;;;;;5034657;28;20100;-66
2022/10/14 00:11:05;;;;;;;16.63;9.13;;;11.00;72.30;;;;;;5035363;28;20101;-67
2022/10/14 00:13:31;;;;;;;14.90;9.13;;;11.00;72.10;;;;;;5047372;28;20029;-67
2022/10/14 00:15:56;;;;;;;16.98;9.73;;;11.10;71.70;;;;;;5036443;28;20025;-67
2022/10/14 00:18:22;;;;;;;18.92;10.85;;;11.10;72.60;;;;;;5037800;28;20026;-68
2022/10/14 00:20:59;;;;;;;16.33;11.35;;;11.10;72.40;;;;;;5033958;28;20021;-66
2022/10/14 00:23:25;;;;;;;15.15;10.10;;;11.00;72.70;;;;;;5037585;28;20040;-66
2022/10/14 00:25:51;;;;;;;24.75;14.35;;;11.00;72.20;;;;;;5032897;28;20464;-66
2022/10/14 00:28:17;;;;;;;20.38;12.25;;;11.10;72.00;;;;;;5035228;28;20075;-66
2022/10/14 00:30:57;;;;;;;16.65;10.45;;;11.00;72.60;;;;;;5036126;28;20359;-66
2022/10/14 00:33:23;;;;;;;16.45;10.25;;;11.00;71.80;;;;;;5031790;28;20327;-66
2022/10/14 00:36:01;;;;;;;20.70;11.23;;;11.00;72.10;;;;;;5032980;28;20036;-66
2022/10/14 00:38:26;;;;;;;14.93;9.60;;;11.10;71.40;;;;;;5034052;28;20022;-66
2022/10/14 00:40:54;;;;;;;18.02;10.48;;;11.10;71.70;;;;;;5035368;28;20029;-66
2022/10/14 00:43:21;;;;;;;17.60;10.40;;;11.10;71.60;;;;;;5040716;28;20060;-66
2022/10/14 00:45:47;;;;;;;16.48;10.18;;;11.10;72.30;;;;;;5043055;28;20079;-66
2022/10/14 00:48:13;;;;;;;19.63;10.98;;;11.10;72.10;;;;;;5040187;28;20116;-66
2022/10/14 00:50:42;;;;;;;19.40;10.65;;;11.10;71.80;;;;;;5035738;28;20041;-66
2022/10/14 00:53:10;;;;;;;20.17;10.07;;;11.10;71.60;;;;;;5034148;28;20110;-66
2022/10/14 00:55:40;;;;;;;17.42;9.27;;;11.10;71.70;;;;;;5033947;28;20025;-66
2022/10/14 00:58:07;;;;;;;15.77;10.52;;;11.20;71.50;;;;;;5041762;28;20036;-66
2022/10/14 01:00:33;;;;;;;14.93;9.77;;;11.10;72.10;;;;;;5038978;28;20156;-65
2022/10/14 01:02:58;;;;;;;16.70;8.73;;;11.20;72.20;;;;;;5032076;28;20100;-66
2022/10/14 01:05:32;;;;;;;16.38;8.25;;;11.20;72.00;;;;;;5034563;28;20216;-67
2022/10/14 01:08:23;;;;;;;20.17;8.18;;;11.20;73.40;;;;;;5023620;28;20025;-66
2022/10/14 01:11:08;;;;;;;17.23;9.43;;;11.30;73.40;;;;;;5033072;28;20691;-66
2022/10/14 01:13:40;;;;;;;19.75;11.20;;;11.20;75.40;;;;;;5034256;28;20353;-67
2022/10/14 01:16:30;;;;;;;16.58;10.25;;;11.20;75.70;;;;;;5034973;28;20029;-66
2022/10/14 01:19:19;;;;;;;16.80;10.65;;;11.10;75.50;;;;;;5032905;28;20029;-66
2022/10/14 01:21:50;;;;;;;19.05;9.68;;;11.10;74.60;;;;;;5033498;28;20127;-66
2022/10/14 01:25:09;;;;;;;16.00;9.88;;;11.10;73.80;;;;;;5033847;28;20079;-67
2022/10/14 01:28:04;;;;;;;20.95;9.32;;;11.10;73.80;;;;;;4944594;29;20043;-66
2022/10/14 01:30:37;;;;;;;15.77;9.52;;;11.10;74.00;;;;;;5034290;28;20025;-66
2022/10/14 01:33:11;;;;;;;17.48;9.50;;;11.10;73.90;;;;;;5034312;28;20034;-66
2022/10/14 01:36:21;;;;;;;14.52;8.48;;;11.20;73.60;;;;;;5036062;28;20017;-67
2022/10/14 01:39:05;;;;;;;16.75;9.38;;;11.20;74.40;;;;;;5039660;28;20037;-66
2022/10/14 01:41:48;;;;;;;14.18;8.55;;;11.20;75.20;;;;;;5034325;28;20022;-67
2022/10/14 01:44:17;;;;;;;14.20;8.65;;;11.20;75.50;;;;;;5047622;28;20414;-66
2022/10/14 01:46:49;;;;;;;16.98;9.30;;;11.20;75.90;;;;;;5043947;28;20030;-66
2022/10/14 01:49:34;;;;;;;15.10;8.52;;;11.10;75.90;;;;;;5034226;28;20112;-67
2022/10/14 01:52:12;;;;;;;13.38;8.75;;;11.20;75.80;;;;;;5034015;28;20050;-66
2022/10/14 01:54:41;;;;;;;14.30;8.30;;;11.20;76.10;;;;;;5030051;28;20024;-66
2022/10/14 01:57:14;;;;;;;10.45;7.40;;;11.10;76.70;;;;;;5033755;28;20438;-67
2022/10/14 01:59:41;;;;;;;15.90;8.45;;;11.20;76.70;;;;;;5032105;28;20053;-67
2022/10/14 02:02:07;;;;;;;16.42;8.80;;;11.20;77.90;;;;;;5034106;28;20108;-66
2022/10/14 02:04:32;;;;;;;12.73;8.18;;;11.20;78.30;;;;;;5031483;28;20104;-67
2022/10/14 02:06:58;;;;;;;13.65;8.23;;;11.20;78.20;;;;;;5031032;28;20036;-66
2022/10/14 02:09:37;;;;;;;11.57;8.32;;;11.20;78.20;;;;;;5029418;28;20112;-67
2022/10/14 02:12:19;;;;;;;16.70;9.43;;;11.20;79.00;;;;;;5034251;28;20037;-66
2022/10/14 02:15:10;;;;;;;16.77;8.63;;;11.20;78.40;;;;;;5034673;28;20033;-66
2022/10/14 02:17:49;;;;;;;13.75;8.13;;;11.20;79.60;;;;;;5018131;28;20484;-66
2022/10/14 02:20:24;;;;;;;16.20;7.55;;;11.20;78.80;;;;;;5035838;28;20053;-67
2022/10/14 02:23:22;;;;;;;13.68;7.45;;;11.20;79.80;;;;;;5035891;28;20029;-66
2022/10/14 02:25:49;;;;;;;12.32;7.95;;;11.20;80.80;;;;;;5027505;28;20037;-67
2022/10/14 02:28:18;;;;;;;13.38;7.65;;;11.20;83.20;;;;;;5032477;28;20295;-66
2022/10/14 02:30:49;;;;;;;13.13;6.50;;;11.20;84.70;;;;;;5034537;28;20026;-67
2022/10/14 02:33:19;;;;;;;11.13;7.15;;;11.20;85.00;;;;;;5036866;28;20029;-67
2022/10/14 02:35:47;;;;;;;11.30;6.13;;;11.30;87.10;;;;;;5028804;28;20333;-66
2022/10/14 02:38:13;;;;;;;9.25;6.30;;;11.30;89.50;;;;;;5036133;28;20414;-66
2022/10/14 02:40:43;;;;;;;11.95;6.00;;;11.30;89.90;;;;;;5035867;28;20033;-67
2022/10/14 02:43:10;;;;;;;13.18;6.75;;;11.30;89.80;;;;;;5034620;28;20033;-67
2022/10/14 02:45:37;;;;;;;10.63;6.32;;;11.30;88.50;;;;;;5031763;28;20057;-67
2022/10/14 02:48:03;;;;;;;12.65;6.00;;;11.20;88.30;;;;;;5040730;28;20059;-66
2022/10/14 02:50:29;;;;;;;9.60;6.07;;;11.20;88.70;;;;;;5056897;28;20045;-65
2022/10/14 02:52:54;;;;;;;11.80;6.35;;;11.20;88.30;;;;;;5034952;28;20441;-66
2022/10/14 02:55:20;;;;;;;11.40;5.50;;;11.20;87.40;;;;;;5035892;28;20021;-65
2022/10/14 02:57:46;;;;;;;12.48;5.85;;;11.20;87.70;;;;;;5037422;28;20113;-66
2022/10/14 03:00:12;;;;;;;10.07;5.85;;;11.20;88.70;;;;;;5042886;28;20100;-65
2022/10/14 03:02:38;;;;;;;11.60;5.22;;;11.20;90.40;;;;;;5037364;28;20417;-68
2022/10/14 03:05:04;;;;;;;12.18;5.15;;;11.30;90.70;;;;;;5043912;28;20071;-67
2022/10/14 03:07:30;;;;;;;9.98;4.95;;;11.30;91.40;;;;;;5037719;28;20445;-67
2022/10/14 03:09:55;;;;;;;10.05;5.82;;;11.40;93.70;;;;;;5039039;28;20033;-66
2022/10/14 03:12:21;;;;;;;10.77;5.03;;;11.50;94.30;;;;;;5035264;28;20388;-67
2022/10/14 03:14:46;;;;;;;10.38;4.45;;;11.50;94.30;;;;;;5043376;28;20096;-67
2022/10/14 03:17:12;;;;;;;8.90;4.90;;;11.50;94.20;;;;;;5036934;28;20099;-66
2022/10/14 03:19:38;;;;;;;9.30;4.90;;;11.60;95.00;;;;;;5037893;28;20117;-66
2022/10/14 03:22:03;;;;;;;10.25;5.13;;;11.60;95.00;;;;;;5037417;28;20033;-67
2022/10/14 03:24:29;;;;;;;10.65;4.88;;;11.60;94.70;;;;;;5035488;28;20033;-66
2022/10/14 03:26:55;;;;;;;10.32;5.78;;;11.60;95.20;;;;;;5037373;28;20040;-66
2022/10/14 03:29:20;;;;;;;10.98;4.85;;;11.60;94.70;;;;;;5037682;28;20101;-66
2022/10/14 03:31:46;;;;;;;9.63;5.07;;;11.60;95.30;;;;;;5037596;28;20079;-66
2022/10/14 03:34:11;;;;;;;8.93;5.07;;;11.60;95.70;;;;;;5039274;28;20025;-66
2022/10/14 03:36:37;;;;;;;12.80;5.13;;;11.60;94.90;;;;;;5057720;28;20027;-67
2022/10/14 03:39:03;;;;;;;9.30;4.70;;;11.50;94.70;;;;;;5043188;28;20072;-67
2022/10/14 03:41:28;;;;;;;8.30;4.40;;;11.40;93.90;;;;;;5056607;28;20060;-68
2022/10/14 03:43:54;;;;;;;8.68;5.03;;;11.40;93.40;;;;;;5037592;28;20083;-66
2022/10/14 03:46:20;;;;;;;10.45;4.55;;;11.40;92.80;;;;;;5038369;28;20415;-67
2022/10/14 03:48:46;;;;;;;9.38;4.45;;;11.40;93.60;;;;;;5037377;28;20334;-66
2022/10/14 03:51:11;;;;;;;7.35;4.70;;;11.40;94.30;;;;;;5034981;28;20048;-66
2022/10/14 03:53:37;;;;;;;8.32;4.18;;;11.40;94.70;;;;;;5049935;28;20029;-67
2022/10/14 03:56:03;;;;;;;8.75;4.63;;;11.40;95.30;;;;;;5034532;28;20022;-66
2022/10/14 03:58:28;;;;;;;9.43;4.93;;;11.40;96.50;;;;;;5039052;28;20419;-66
2022/10/14 04:00:54;;;;;;;7.82;4.38;;;11.40;95.70;;;;;;5034181;28;20021;-66
2022/10/14 04:03:20;;;;;;;7.07;4.10;;;11.40;96.50;;;;;;5018092;28;20183;-66
2022/10/14 04:05:45;;;;;;;11.05;5.03;;;11.40;96.20;;;;;;5034297;28;20025;-66
2022/10/14 04:08:11;;;;;;;8.88;4.70;;;11.40;96.80;;;;;;5040048;28;20414;-66
2022/10/14 04:10:36;;;;;;;9.63;4.68;;;11.30;96.40;;;;;;5033239;28;20032;-66
2022/10/14 04:13:02;;;;;;;10.07;4.88;;;11.20;95.50;;;;;;5036968;28;20033;-66
2022/10/14 04:15:28;;;;;;;11.73;5.03;;;11.10;95.70;;;;;;5035091;28;20022;-66
2022/10/14 04:17:55;;;;;;;10.88;4.45;;;11.10;95.10;;;;;;5042582;28;20100;-66
2022/10/14 04:20:21;;;;;;;7.63;4.28;;;11.00;95.00;;;;;;5036752;28;20034;-67
2022/10/14 04:22:46;;;;;;;9.32;4.30;;;11.10;96.00;;;;;;5039326;28;20034;-66
2022/10/14 04:25:12;;;;;;;9.70;4.70;;;11.00;96.30;;;;;;5034659;28;20026;-67
2022/10/14 04:27:37;;;;;;;9.20;4.45;;;11.00;95.70;;;;;;5037069;28;20033;-66
2022/10/14 04:30:04;;;;;;;9.02;4.53;;;11.00;95.30;;;;;;5034338;28;20172;-66
2022/10/14 04:32:30;;;;;;;10.32;5.28;;;10.90;95.00;;;;;;5034798;28;20330;-66
2022/10/14 04:34:55;;;;;;;10.55;5.07;;;10.90;95.00;;;;;;5034589;28;20029;-66
2022/10/14 04:37:21;;;;;;;16.85;5.38;;;10.90;95.20;;;;;;5034003;28;20026;-66
2022/10/14 04:39:46;;;;;;;11.15;5.53;;;10.90;94.60;;;;;;5034845;28;20423;-66
2022/10/14 04:42:12;;;;;;;11.90;4.72;;;10.80;94.10;;;;;;5035084;28;20030;-66
2022/10/14 04:44:38;;;;;;;10.27;5.18;;;10.80;93.80;;;;;;5034595;28;20061;-66
2022/10/14 04:47:04;;;;;;;10.48;5.22;;;10.70;92.70;;;;;;5037742;28;20096;-66
2022/10/14 04:49:30;;;;;;;10.05;4.97;;;10.70;93.10;;;;;;5032639;28;20048;-66
2022/10/14 04:51:58;;;;;;;9.98;5.40;;;10.60;93.00;;;;;;5034542;28;20046;-66
2022/10/14 04:54:24;;;;;;;12.52;5.13;;;10.60;92.60;;;;;;5031814;28;20025;-66
2022/10/14 04:56:53;;;;;;;10.13;5.25;;;10.60;92.60;;;;;;5042458;28;20326;-66
2022/10/14 04:59:18;;;;;;;9.85;5.25;;;10.60;91.90;;;;;;5034521;28;20033;-67
2022/10/14 05:01:44;;;;;;;10.40;5.32;;;10.60;91.70;;;;;;5040479;28;20437;-66
2022/10/14 05:04:10;;;;;;;11.18;5.20;;;10.70;91.70;;;;;;5036954;28;20021;-67
2022/10/14 05:06:36;;;;;;;10.32;5.28;;;10.70;92.10;;;;;;5034561;28;20087;-66
2022/10/14 05:09:03;;;;;;;10.05;5.60;;;10.80;92.50;;;;;;5035199;28;20021;-66
2022/10/14 05:11:29;;;;;;;9.18;5.18;;;10.80;92.30;;;;;;5032505;28;20040;-67
2022/10/14 05:13:55;;;;;;;10.30;4.80;;;10.80;92.60;;;;;;5033106;28;20017;-66
2022/10/14 05:16:20;;;;;;;8.55;4.80;;;10.90;92.50;;;;;;5034768;28;20033;-67
2022/10/14 05:18:46;;;;;;;14.93;6.18;;;10.90;93.40;;;;;;5034584;28;20049;-66
2022/10/14 05:21:11;;;;;;;15.90;5.60;;;11.00;94.20;;;;;;5033894;28;20049;-67
2022/10/14 05:23:37;;;;;;;12.02;5.90;;;11.00;94.80;;;;;;5034521;28;20030;-66
2022/10/14 05:26:03;;;;;;;10.95;5.18;;;11.00;94.90;;;;;;5033679;28;20495;-66
2022/10/14 05:28:29;;;;;;;10.60;5.10;;;11.00;95.30;;;;;;5034679;28;20025;-66
2022/10/14 05:30:55;;;;;;;9.40;5.35;;;11.00;95.10;;;;;;5035571;28;20075;-66
2022/10/14 05:33:21;;;;;;;13.15;5.57;;;10.90;94.90;;;;;;5031001;28;20033;-66
2022/10/14 05:35:46;;;;;;;9.85;5.70;;;10.70;94.50;;;;;;5036420;28;20033;-65
2022/10/14 05:38:12;;;;;;;10.15;5.32;;;10.70;93.90;;;;;;5034668;28;20033;-66
2022/10/14 05:40:38;;;;;;;7.97;5.82;;;10.60;93.70;;;;;;5039457;28;20021;-67
2022/10/14 05:43:03;;;;;;;11.07;5.97;;;10.50;93.50;;;;;;5035384;28;20083;-66
2022/10/14 05:45:29;;;;;;;11.50;6.10;;;10.50;93.00;;;;;;5034117;28;20060;-66
2022/10/14 05:47:55;;;;;;;13.70;7.10;;;10.60;93.20;;;;;;5038701;28;20033;-66
2022/10/14 05:50:20;;;;;;;8.60;5.90;;;10.70;93.80;;;;;;5038411;28;20048;-66
2022/10/14 05:52:47;;;;;;;10.05;5.97;;;10.90;94.60;;;;;;5036511;28;20037;-66
2022/10/14 05:55:12;;;;;;;10.80;5.72;;;11.00;95.00;;;;;;5034670;28;20021;-65
2022/10/14 05:57:38;;;;;;;22.77;6.03;;;11.10;95.50;;;;;;5037551;28;20030;-66
2022/10/14 06:00:05;;;;;;;14.38;6.00;;;11.20;96.30;;;;;;5037751;28;20025;-68
2022/10/14 06:02:30;;;;;;;12.13;5.57;;;11.30;97.50;;;;;;5035698;28;20033;-66
2022/10/14 06:04:57;;;;;;;14.10;5.25;;;11.40;97.60;;;;;;5038499;28;20299;-65
2022/10/14 06:07:23;;;;;;;11.38;5.65;;;11.50;97.70;;;;;;5036224;28;20025;-65
2022/10/14 06:09:48;;;;;;;14.63;5.43;;;11.50;97.80;;;;;;5040984;28;20325;-66
2022/10/14 06:12:14;;;;;;;19.65;5.75;;;11.60;98.00;;;;;;5042094;28;20040;-65
2022/10/14 06:14:40;;;;;;;9.43;5.32;;;11.80;98.00;;;;;;5038904;28;20025;-65
2022/10/14 06:17:05;;;;;;;11.63;5.32;;;11.90;98.00;;;;;;5037651;28;20104;-66
2022/10/14 06:19:31;;;;;;;14.43;5.40;;;12.00;98.00;;;;;;5039731;28;20018;-67
2022/10/14 06:21:57;;;;;;;10.60;4.63;;;12.10;98.00;;;;;;5039681;28;20317;-66
2022/10/14 06:24:23;;;;;;;13.20;4.65;;;12.20;98.00;;;;;;5037343;28;20025;-67
2022/10/14 06:26:49;;;;;;;8.50;5.00;;;12.30;98.00;;;;;;5042818;28;20041;-66
2022/10/14 06:29:15;;;;;;;23.67;5.35;;;12.40;98.00;;;;;;5037901;28;20033;-66
2022/10/14 06:31:41;;;;;;;17.00;5.00;;;12.40;98.00;;;;;;5041254;28;20128;-66
2022/10/14 06:34:07;;;;;;;9.10;4.47;;;12.40;98.00;;;;;;5038675;28;20061;-67
2022/10/14 06:36:34;;;;;;;7.78;4.28;;;12.50;98.00;;;;;;5037286;28;20021;-67
2022/10/14 06:38:59;;;;;;;9.38;4.40;;;12.60;98.00;;;;;;5038767;28;20029;-66
2022/10/14 06:41:25;;;;;;;11.82;4.20;;;12.70;98.00;;;;;;5043493;28;20329;-66
2022/10/14 06:43:51;;;;;;;10.82;4.63;;;12.80;98.00;;;;;;5038456;28;20417;-67
2022/10/14 06:46:17;;;;;;;10.00;4.88;;;12.90;98.00;;;;;;5045125;28;20075;-66
2022/10/14 06:48:43;;;;;;;9.50;4.97;;;13.10;98.00;;;;;;5038345;28;20096;-67
2022/10/14 06:51:08;;;;;;;11.82;7.35;;;13.10;98.00;;;;;;5035781;28;20038;-66
2022/10/14 06:53:34;;;;;;;11.02;7.07;;;13.20;98.00;;;;;;5037531;28;20049;-66
2022/10/14 06:56:02;;;;;;;9.70;5.60;;;13.30;98.00;;;;;;5046237;28;20033;-66
2022/10/14 06:58:29;;;;;;;7.43;4.32;;;13.30;98.00;;;;;;5037553;28;20076;-66
2022/10/14 07:00:59;;;;;;;10.88;4.43;;;13.20;98.00;;;;;;5034461;28;20036;-66
2022/10/14 07:03:25;;;;;;;10.15;4.88;;;13.20;98.00;;;;;;5053296;28;20032;-67
2022/10/14 07:05:50;;;;;;;7.30;4.15;;;13.10;98.00;;;;;;5036036;28;20044;-67
2022/10/14 07:08:16;;;;;;;9.98;4.53;;;13.20;98.00;;;;;;5038235;28;20065;-66
2022/10/14 07:10:42;;;;;;;9.15;4.32;;;13.20;98.00;;;;;;5035536;28;20485;-66
2022/10/14 07:13:07;;;;;;;14.43;4.20;;;13.20;98.00;;;;;;5037360;28;20112;-66
2022/10/14 07:15:33;;;;;;;9.02;3.72;;;13.30;98.00;;;;;;5036830;28;20036;-66
2022/10/14 07:17:59;;;;;;;7.65;3.33;;;13.30;98.00;;;;;;5033822;28;20102;-66
2022/10/14 07:20:24;;;;;;;6.88;3.78;;;13.40;98.00;;;;;;5035689;28;21535;-66
2022/10/14 07:22:55;;;;;;;7.03;4.18;;;13.60;98.00;;;;;;5037581;28;20363;-67
2022/10/14 07:25:21;;;;;;;8.05;4.55;;;13.80;98.00;;;;;;5034565;28;20440;-66
2022/10/14 07:27:47;;;;;;;7.45;3.80;;;13.90;98.00;;;;;;5037975;28;20021;-66
2022/10/14 07:30:15;;;;;;;9.13;4.45;;;14.00;98.00;;;;;;5039445;28;20528;-66
2022/10/14 07:32:41;;;;;;;7.97;3.95;;;14.10;98.00;;;;;;5037426;28;20321;-66
2022/10/14 07:35:07;;;;;;;8.88;4.47;;;14.10;98.00;;;;;;5036449;28;20104;-66
2022/10/14 07:37:32;;;;;;;7.47;4.30;;;14.20;98.00;;;;;;5035036;28;20028;-66
2022/10/14 07:39:58;;;;;;;8.57;4.50;;;14.30;98.00;;;;;;5050116;28;20029;-67
2022/10/14 07:42:24;;;;;;;11.00;5.50;;;14.30;98.00;;;;;;5042118;28;20033;-65
2022/10/14 07:44:52;;;;;;;9.43;5.25;;;14.40;98.00;;;;;;5037505;28;20022;-66
2022/10/14 07:47:18;;;;;;;10.50;5.40;;;14.30;98.00;;;;;;5053614;28;20440;-66
2022/10/14 07:49:44;;;;;;;11.48;5.10;;;14.20;98.00;;;;;;5037537;28;20108;-66
2022/10/14 07:52:09;;;;;;;10.20;4.70;;;14.20;98.00;;;;;;5040268;28;20080;-66
2022/10/14 07:54:35;;;;;;;7.88;4.38;;;14.20;98.00;;;;;;5038366;28;20317;-66
2022/10/14 07:57:00;;;;;;;12.35;4.70;;;14.30;98.00;;;;;;5039252;28;20049;-67
2022/10/14 07:59:26;;;;;;;7.43;4.13;;;14.40;98.00;;;;;;5038611;28;20377;-67
2022/10/14 08:01:52;;;;;;;8.38;4.82;;;14.50;98.00;;;;;;5047936;28;20025;-67
2022/10/14 08:04:19;;;;;;;10.93;5.43;;;14.70;98.00;;;;;;5036425;28;20029;-66
2022/10/14 08:06:47;;;;;;;7.35;4.63;;;14.80;98.00;;;;;;5055102;28;20414;-66
2022/10/14 08:09:13;;;;;;;8.68;5.07;;;14.80;98.00;;;;;;5049134;28;20022;-66
2022/10/14 08:11:38;;;;;;;10.55;4.43;;;14.90;98.00;;;;;;5034216;28;20125;-66
2022/10/14 08:14:05;;;;;;;8.10;4.18;;;14.90;98.00;;;;;;5038760;28;20422;-67
2022/10/14 08:16:33;;;;;;;39.85;6.00;;;15.00;98.00;;;;;;5036318;28;20021;-66
2022/10/14 08:19:07;;;;;;;10.52;4.35;;;15.10;98.00;;;;;;5037277;28;20032;-66
2022/10/14 08:21:32;;;;;;;;;;;15.10;97.80;;;;;;5045324;28;20021;-66
2022/10/14 08:23:58;;;;;;;11.05;5.32;;;15.00;98.00;;;;;;5057094;28;19905;-67
2022/10/14 08:26:31;;;;;;;6.47;4.20;;;15.10;98.00;;;;;;5045388;28;20025;-67
2022/10/14 08:29:03;;;;;;;9.77;5.05;;;15.10;98.00;;;;;;5043528;28;20317;-65
2022/10/14 08:31:34;;;;;;;10.95;5.38;;;15.20;98.00;;;;;;5049216;28;20103;-66
2022/10/14 08:34:01;;;;;;;11.90;5.55;;;15.40;98.00;;;;;;5026206;28;20032;-67
2022/10/14 08:36:28;;;;;;;9.18;4.47;;;15.50;97.80;;;;;;5035806;28;20026;-65
2022/10/14 08:38:54;;;;;;;7.20;4.05;;;15.70;97.00;;;;;;5036335;28;20087;-66
2022/10/14 08:41:25;;;;;;;16.92;6.60;;;15.70;98.00;;;;;;5047622;28;20025;-66
2022/10/14 08:44:30;;;;;;;11.38;5.15;;;15.80;98.00;;;;;;5036382;28;20120;-66
2022/10/14 08:46:57;;;;;;;;;;;15.70;97.90;;;;;;5034934;28;20025;-65
2022/10/14 08:49:40;;;;;;;7.53;3.85;;;15.90;98.00;;;;;;5036402;28;19909;-65
2022/10/14 08:52:11;;;;;;;10.05;4.88;;;16.20;97.80;;;;;;5035386;28;20045;-67
2022/10/14 08:54:51;;;;;;;9.98;4.05;;;16.40;96.70;;;;;;5035329;28;20231;-67
2022/10/14 08:57:25;;;;;;;9.50;5.00;;;16.50;96.30;;;;;;5035278;28;20028;-67
2022/10/14 08:59:51;;;;;;;10.48;4.68;;;16.60;96.50;;;;;;5035775;28;20038;-67
2022/10/14 09:02:45;;;;;;;8.43;4.18;;;16.70;95.80;;;;;;5056244;28;20441;-67
2022/10/14 09:05:22;;;;;;;10.18;4.50;;;16.90;95.40;;;;;;5055189;28;20318;-67
2022/10/14 09:07:50;;;;;;;14.50;6.85;;;17.00;95.30;;;;;;5048445;28;20112;-66
2022/10/14 09:10:35;;;;;;;14.10;7.57;;;17.10;95.00;;;;;;5035401;28;20040;-66
2022/10/14 09:13:19;;;;;;;13.23;7.35;;;17.00;94.80;;;;;;5034113;28;20369;-65
2022/10/14 09:15:59;;;;;;;12.48;6.20;;;16.80;95.30;;;;;;5036409;28;20051;-66
2022/10/14 09:18:37;;;;;;;11.07;5.30;;;17.00;96.00;;;;;;5036134;28;20426;-66
2022/10/14 09:21:23;;;;;;;11.23;5.15;;;17.40;95.30;;;;;;5034466;28;20017;-66
2022/10/14 09:23:56;;;;;;;8.57;4.45;;;17.60;94.50;;;;;;5029133;28;20414;-66
2022/10/14 09:26:21;;;;;;;8.75;3.72;;;17.80;93.50;;;;;;5045932;28;20021;-66
2022/10/14 09:28:52;;;;;;;8.10;4.28;;;17.60;91.00;;;;;;5038990;28;20372;-65
2022/10/14 09:31:18;;;;;;;9.75;3.85;;;17.40;92.50;;;;;;5027889;28;20087;-65
2022/10/14 09:33:44;;;;;;;7.95;3.90;;;17.00;92.80;;;;;;5046091;28;20033;-65
2022/10/14 09:36:20;;;;;;;9.90;4.32;;;17.10;93.90;;;;;;5034724;28;20049;-65
2022/10/14 09:38:52;;;;;;;6.85;3.72;;;17.20;93.10;;;;;;5035629;28;20026;-65
2022/10/14 09:41:24;;;;;;;7.00;3.58;;;17.40;92.50;;;;;;5045137;28;20017;-65
2022/10/14 09:44:24;;;;;;;9.38;3.83;;;17.90;91.80;;;;;;5035347;28;20026;-66
2022/10/14 09:46:58;;;;;;;7.07;4.03;;;17.80;89.80;;;;;;5051152;28;20078;-65
2022/10/14 09:49:37;;;;;;;8.25;3.72;;;17.70;90.60;;;;;;5055567;28;20037;-65
2022/10/14 09:52:06;;;;;;;6.22;3.72;;;17.70;90.50;;;;;;5035553;28;20069;-65
2022/10/14 09:54:33;;;;;;;8.20;4.07;;;17.60;91.10;;;;;;5037945;28;20026;-67
2022/10/14 09:57:06;;;;;;;9.07;3.50;;;17.20;90.80;;;;;;5033188;28;20026;-66
2022/10/14 09:59:32;;;;;;;8.80;3.95;;;17.00;92.90;;;;;;5033916;28;20022;-65
2022/10/14 10:02:01;;;;;;;7.40;3.17;;;17.10;93.20;;;;;;5041417;28;20021;-66
2022/10/14 10:04:41;;;;;;;8.48;4.00;;;17.10;92.90;;;;;;5015646;28;20447;-66
2022/10/14 10:07:29;;;;;;;6.88;3.20;;;17.00;92.20;;;;;;5032555;28;20049;-66
2022/10/14 10:10:01;;;;;;;6.72;3.03;;;16.80;92.90;;;;;;5007748;28;20064;-66
2022/10/14 10:12:32;;;;;;;5.55;2.80;;;16.80;92.70;;;;;;5027076;28;20035;-67
2022/10/14 10:15:02;;;;;;;8.45;3.97;;;16.80;92.60;;;;;;5034788;28;20022;-65
2022/10/14 10:17:31;;;;;;;7.90;3.65;;;16.70;93.30;;;;;;5002191;28;20017;-67
2022/10/14 10:20:19;;;;;;;8.13;2.90;;;16.50;93.50;;;;;;5033756;28;20032;-67
2022/10/14 10:22:45;;;;;;;5.65;2.97;;;16.30;93.90;;;;;;5017966;28;20029;-66
2022/10/14 10:25:11;;;;;;;5.72;2.60;;;16.40;94.20;;;;;;5038409;28;20032;-66
2022/10/14 10:27:45;;;;;;;6.32;2.80;;;16.60;94.70;;;;;;5032592;28;20076;-67
2022/10/14 10:30:17;;;;;;;5.85;2.42;;;16.60;93.70;;;;;;5048343;28;20385;-66
2022/10/14 10:33:03;;;;;;;7.25;2.90;;;16.60;94.20;;;;;;5029304;28;20060;-66
2022/10/14 10:36:01;;;;;;;6.13;2.83;;;16.60;93.60;;;;;;5048464;28;20409;-66
2022/10/14 10:38:44;;;;;;;6.50;2.22;;;16.70;94.40;;;;;;5019188;28;20052;-66
2022/10/14 10:41:30;;;;;;;7.15;2.38;;;16.30;94.50;;;;;;5032201;28;20147;-65
2022/10/14 10:44:16;;;;;;;5.75;2.17;;;15.80;95.70;;;;;;5025409;28;20025;-66
2022/10/14 10:47:04;;;;;;;4.10;1.92;;;15.70;96.80;;;;;;5024984;28;20029;-66
2022/10/14 10:49:39;;;;;;;6.88;2.30;;;15.80;96.00;;;;;;5037550;28;20076;-66
2022/10/14 10:52:35;;;;;;;4.97;2.22;;;15.80;96.40;;;;;;5058348;28;20141;-65
2022/10/14 10:55:38;;;;;;;5.95;2.60;;;15.90;96.00;;;;;;5035387;28;20017;-66
2022/10/14 10:58:10;;;;;;;5.53;2.15;;;16.00;96.90;;;;;;5034628;28;20307;-65
2022/10/14 11:00:51;;;;;;;5.45;2.45;;;16.10;96.40;;;;;;5027546;28;20423;-67
2022/10/14 11:03:31;;;;;;;5.95;2.25;;;16.00;96.20;;;;;;5020390;28;20422;-65
2022/10/14 11:06:09;;;;;;;5.10;2.65;;;15.80;97.20;;;;;;5018322;28;20033;-65
2022/10/14 11:12:06;;;;;;;4.47;2.08;;;15.80;98.00;;;;;;5030396;28;20389;-66
2022/10/14 11:15:01;;;;;;;6.13;2.13;;;15.90;98.00;;;;;;5051593;28;20127;-65
2022/10/14 11:17:41;;;;;;;;;;;15.90;97.10;;;;;;5034823;28;20111;-66
2022/10/14 11:20:16;;;;;;;8.80;1.98;;;16.00;97.30;;;;;;5031928;28;20020;-66
2022/10/14 11:23:05;;;;;;;5.00;1.75;;;16.30;96.90;;;;;;5033250;28;20034;-65
2022/10/14 11:26:06;;;;;;;7.20;3.20;;;16.60;96.60;;;;;;5034700;28;20071;-66
2022/10/14 11:28:50;;;;;;;6.45;2.00;;;16.60;95.00;;;;;;5032178;28;20033;-66
2022/10/14 11:31:33;;;;;;;5.13;1.40;;;16.70;95.60;;;;;;5037149;28;20052;-65
2022/10/14 11:34:02;;;;;;;7.53;1.48;;;17.10;95.20;;;;;;5035055;28;20026;-65
2022/10/14 11:36:54;;;;;;;4.18;1.70;;;17.40;93.50;;;;;;5056838;28;20115;-64
2022/10/14 11:39:44;;;;;;;4.82;1.58;;;17.60;93.70;;;;;;5032761;28;20414;-65
2022/10/14 11:42:40;;;;;;;3.47;1.50;;;18.10;91.20;;;;;;5031839;28;20041;-65
2022/10/14 11:45:15;;;;;;;3.25;1.30;;;18.10;90.80;;;;;;5036261;28;20355;-65
2022/10/14 11:47:45;;;;;;;3.38;1.40;;;17.90;91.80;;;;;;5037661;28;20087;-67
2022/10/14 11:50:24;;;;;;;3.00;1.23;;;18.20;91.90;;;;;;5040281;28;20017;-67
2022/10/14 11:53:12;;;;;;;3.58;1.27;;;18.40;89.80;;;;;;5037393;28;20120;-66
2022/10/14 11:55:42;;;;;;;3.13;1.60;;;18.40;89.70;;;;;;5035770;28;20029;-67
2022/10/14 11:58:25;;;;;;;2.97;1.30;;;18.30;90.40;;;;;;5016855;28;20068;-67
2022/10/14 12:00:53;;;;;;;3.00;1.27;;;18.20;89.80;;;;;;5034167;28;20029;-66
2022/10/14 12:03:50;;;;;;;4.30;2.40;;;17.80;90.60;;;;;;5035591;28;20037;-66
2022/10/14 12:06:29;;;;;;;3.88;1.33;;;17.70;90.90;;;;;;5033594;28;20025;-66
2022/10/14 12:09:22;;;;;;;1.95;0.98;;;17.60;91.70;;;;;;5035366;28;20037;-66
2022/10/14 12:11:55;;;;;;;4.72;1.92;;;17.40;92.80;;;;;;5028707;28;20330;-67
2022/10/14 12:14:38;;;;;;;2.63;1.08;;;17.70;92.80;;;;;;5035609;28;20018;-65
2022/10/14 12:17:14;;;;;;;5.10;1.40;;;17.90;91.20;;;;;;5026563;28;20326;-67
2022/10/14 12:19:40;;;;;;;2.22;1.10;;;17.70;92.00;;;;;;5019011;28;20086;-66
2022/10/14 12:22:17;;;;;;;5.05;1.92;;;17.60;92.00;;;;;;5035215;28;20421;-66
2022/10/14 12:24:54;;;;;;;3.97;1.10;;;17.60;91.60;;;;;;5036010;28;20028;-66
2022/10/14 12:27:22;;;;;;;2.30;1.00;;;17.60;91.80;;;;;;5032601;28;20033;-66
2022/10/14 12:29:49;;;;;;;2.65;1.02;;;17.70;92.10;;;;;;5034466;28;20624;-67
2022/10/14 12:32:29;;;;;;;2.28;1.00;;;17.70;92.30;;;;;;5036013;28;20041;-65
2022/10/14 12:35:00;;;;;;;1.88;0.80;;;17.80;91.80;;;;;;5033708;28;20025;-65
2022/10/14 12:37:48;;;;;;;5.38;1.83;;;17.50;91.70;;;;;;5035301;28;20536;-67
2022/10/14 12:40:14;;;;;;;2.97;1.30;;;17.50;92.50;;;;;;5032286;28;20426;-66
2022/10/14 12:42:43;;;;;;;5.55;2.75;;;17.50;92.40;;;;;;5036383;28;20032;-66
2022/10/14 12:45:16;;;;;;;5.60;1.83;;;17.60;93.10;;;;;;5035517;28;20026;-67
2022/10/14 12:47:42;;;;;;;5.07;1.20;;;18.00;91.20;;;;;;5035899;28;20025;-66
2022/10/14 12:50:14;;;;;;;4.00;1.13;;;17.90;91.10;;;;;;5034443;28;20025;-67
2022/10/14 12:52:53;;;;;;;3.78;1.48;;;17.90;91.70;;;;;;5018373;28;20064;-66
2022/10/14 12:55:23;;;;;;;3.60;1.48;;;18.20;91.40;;;;;;5023889;28;20021;-66
2022/10/14 12:57:58;;;;;;;6.35;1.98;;;18.10;90.60;;;;;;5036306;28;20022;-66
2022/10/14 13:00:36;;;;;;;3.10;1.30;;;18.00;91.50;;;;;;5026600;28;20024;-65
2022/10/14 13:03:04;;;;;;;2.55;1.27;;;17.70;92.20;;;;;;5035802;28;20029;-66
2022/10/14 13:05:39;;;;;;;3.42;1.27;;;17.50;92.80;;;;;;5035361;28;20441;-66
2022/10/14 13:08:15;;;;;;;2.45;1.20;;;17.40;92.90;;;;;;5034702;28;20037;-66